Metar Cercanos

 

LEPA - Palma De Mallorc, Spain
Distance from station: ONO 38km
Actualización: 28/06/2017 02:00
Parcialmente nuboso
Parcialmente nuboso
 Viento del SO
Viento: SO 7 km/h
Temperatura: 25°C
Rocío: 23°C
Humedad: 89%
Barómetro: 1006 hPa
Clouds: Parcialmente nuboso
Visibility: 10 km
Cloud details: Parcialmente nuboso 457 m
2017/06/28 00:00 LEPA 280000Z 23004KT 200V260 9999 SCT015 25/23 Q1006 NOSIG
LEMH - Mahon/Menorca Is, Spain
Distance from station: ENE 105km
Actualización: 28/06/2017 02:00
Despejado
Despejado
 Viento del OSO
Viento: OSO 22 km/h
Temperatura: 25°C
Rocío: 21°C
Humedad: 79%
Barómetro: 1006 hPa
Resumen: Despejado
Visibility: greater than 10 km
2017/06/28 00:00 LEMH 280000Z AUTO 24012KT 190V270 CAVOK 25/21 Q1006
 
LEIB - Ibiza/Es Codola, Spain
Distance from station: OSO 165km
Actualización: 28/06/2017 02:00
Despejado
Despejado
 Viento del O
Viento: O 11 km/h
Temperatura: 24°C
Rocío: 22°C
Humedad: 89%
Barómetro: 1006 hPa
Resumen: Despejado
Visibility: greater than 10 km
2017/06/28 00:00 LEIB 280000Z 26006KT 230V290 CAVOK 24/22 Q1006 NOSIG
LEBL - Barcelona Airpor, Spain
Distance from station: NNO 225km
Actualización: 28/06/2017 02:00
Few Clouds
Few Clouds
 Viento del E
Viento: E 6 km/h
Temperatura: 26°C
Rocío: 23°C
Humedad: 84%
Barómetro: 1006 hPa
Clouds: Few Clouds
Visibility: 10 km
Cloud details: Few Clouds 396 m
2017/06/28 00:00 LEBL 280000Z 09003KT 9999 FEW013 26/23 Q1006 NOSIG
 
LEVC - Valencia (civ/Mi, Spain
Distance from station: NO 188km
Actualización: 28/06/2017 02:00
Despejado
Despejado
 Viento del OSO
Viento: OSO 17 km/h
Temperatura: 27°C
Rocío: 6°C
Humedad: 26%
Barómetro: 1007 hPa
Resumen: Despejado
Visibility: greater than 10 km
2017/06/28 00:00 LEVC 280000Z 25009KT CAVOK 27/06 Q1007 NOSIG
LEGE - Gerona/Costa Bra, Spain
Distance from station: N 276km
Actualización: 28/06/2017 02:00
Parcialmente nuboso
Parcialmente nuboso
 Viento del varies
Viento: varies 2 km/h
Temperatura: 22°C
Rocío: 13°C
Humedad: 57%
Barómetro: 1007 hPa
Clouds: Parcialmente nuboso
Visibility: 10 km
Cloud details: Few Clouds 549 m
Parcialmente nuboso 914 m
2017/06/28 00:00 LEGE 280000Z VRB01KT 9999 FEW018 SCT030 22/13 Q1007
 
LEAL - Alicante/El Alte, Spain
Distance from station: OSO 344km
Actualización: 28/06/2017 02:00
Despejado
Despejado
 Viento del ONO
Viento: ONO 9 km/h
Temperatura: 28°C
Rocío: 8°C
Humedad: 28%
Barómetro: 1008 hPa
Resumen: Despejado
Visibility: greater than 10 km
2017/06/28 00:00 LEAL 280000Z 29005KT 240V330 CAVOK 28/08 Q1008 NOSIG
LEAM - Almeria Airport, Spain
Distance from station: SSO 56km
Actualización: 28/06/2017 02:00
Despejado
Despejado
 Viento del OSO
Viento: OSO 7 km/h
Temperatura: 21°C
Rocío: 19°C
Humedad: 88%
Barómetro: 1011 hPa
Clouds: Despejado
Visibility: 10 km
2017/06/28 00:00 LEAM 280000Z AUTO 25004KT 210V300 9999 NCD 21/19 Q1011
 
LEZG - Zaragoza (mil/Ci, Spain
Distance from station: NO 431km
Actualización: 28/06/2017 02:00
Muy nuboso
Muy nuboso
 Viento del O
Viento: O 15 km/h
Temperatura: 21°C
Rocío: 16°C
Humedad: 73%
Barómetro: 1009 hPa
Clouds: Muy nuboso
Visibility: 10 km
Cloud details: Few Clouds 1524 m
Muy nuboso 2438 m
2017/06/28 00:00 LEZG 280000Z 28008KT 240V300 9999 FEW050 BKN080 21/16 Q1009
LEMD - Madrid/Barajas, Spain
Distance from station: ONO 234km
Actualización: 28/06/2017 02:00
Parcialmente nuboso
Parcialmente nuboso
 Viento del O
Viento: O 20 km/h
Temperatura: 21°C
Rocío: 10°C
Humedad: 50%
Barómetro: 1012 hPa
Clouds: Parcialmente nuboso
Visibility: 10 km
Cloud details: Parcialmente nuboso 2377 m
2017/06/28 00:00 LEMD 280000Z 27011KT 9999 SCT078 21/10 Q1012 NOSIG
 
LEGR - Granada Airport, Spain
Distance from station: OSO 62km
Actualización: 28/06/2017 02:00
Despejado
Despejado
 Viento del O
Viento: O 20 km/h
Temperatura: 21°C
Rocío: 13°C
Humedad: 60%
Barómetro: 1016 hPa
Clouds: Despejado
Visibility: 10 km
2017/06/28 00:00 LEGR 280000Z AUTO 27011KT 9999 NCD 21/13 Q1016
LEMG - Malaga (civ/Mil), Spain
Distance from station: OSO 227km
Actualización: 28/06/2017 02:00
Despejado
Despejado
 Viento del O
Viento: O 15 km/h
Temperatura: 26°C
Rocío: 12°C
Humedad: 42%
Barómetro: 1014 hPa
Resumen: Despejado
Visibility: greater than 10 km
2017/06/28 00:00 LEMG 280000Z 28008KT CAVOK 26/12 Q1014 NOSIG
 
LEZL - Sevilla (civ/Mil, Spain
Distance from station: S 318km
Actualización: 28/06/2017 02:00
Despejado
Despejado
 Viento del O
Viento: O 19 km/h
Temperatura: 23°C
Rocío: 13°C
Humedad: 53%
Barómetro: 1015 hPa
Clouds: Despejado
Visibility: 10 km
2017/06/28 00:00 LEZL 280000Z AUTO 28010KT 9999 NCD 23/13 Q1015
LEVT - Vitoria, Spain
Distance from station: NO 226km
Actualización: 28/06/2017 02:00
Rain showers, Muy nuboso
Rain showers, Muy nuboso
 Viento del varies
Viento: varies 2 km/h
Temperatura: 14°C
Rocío: 14°C
Humedad: 100%
Barómetro: 1011 hPa
Resumen: Rain Showers
Clouds: Muy nuboso
Visibility: 8 km
Cloud details: Parcialmente nuboso 610 m
Few Clouds 914 m
Muy nuboso 1219 m
2017/06/28 00:00 LEVT 280000Z VRB01KT 8000 SHRA SCT020 FEW030CB BKN040 14/14 Q1011
 
LEBB - Bilbao/Sondica, Spain
Distance from station: NNO 235km
Actualización: 28/06/2017 02:00
Lluvia, Parcialmente nuboso
Lluvia, Parcialmente nuboso
 Viento del calm
Viento: Calma
Temperatura: 18°C
Rocío: 17°C
Humedad: 94%
Barómetro: 1010 hPa
Resumen: Lluvia
Clouds: Parcialmente nuboso
Visibility: 7 km
Cloud details: Few Clouds 732 m
Parcialmente nuboso 2012 m
2017/06/28 00:00 LEBB 280000Z AUTO 00000KT 7000 RA FEW024/// SCT066/// 18/17 Q1010
LESO - San Sebastian/Fu, Spain
Distance from station: N 231km
Actualización: 28/06/2017 02:00
Parcialmente nuboso
Parcialmente nuboso
 Viento del SSO
Viento: SSO 7 km/h
Temperatura: 19°C
Rocío: 19°C
Humedad: 100%
Barómetro: 1009 hPa
Clouds: Parcialmente nuboso
Visibility: 10 km
Cloud details: Few Clouds 884 m
Parcialmente nuboso 1219 m
2017/06/28 00:00 LESO 280000Z AUTO 20004KT 9999 FEW029/// SCT040/// 19/19 Q1009
 
LEVD - Valladolid(Mil/C, Spain
Distance from station: ONO 239km
Actualización: 27/06/2017 21:30
NOT Current
Few Clouds
Few Clouds
 Viento del O
Viento: O 28 km/h
Temperatura: 18°C
Rocío: 10°C
Humedad: 60%
Barómetro: 1012 hPa
Clouds: Few Clouds
Visibility: 10 km
Cloud details: Few Clouds 1158 m
2017/06/27 19:30 LEVD 271930Z 27015KT 9999 FEW038 18/10 Q1012
LESA - Salamanca (civ/M, Spain
Distance from station: ONO 349km
Actualización: 27/06/2017 21:30
NOT Current
Few Clouds
Few Clouds
 Viento del ONO
Viento: ONO 28 km/h
Temperatura: 19°C
Rocío: 10°C
Humedad: 56%
Barómetro: 1013 hPa
Clouds: Few Clouds
Visibility: 10 km
Cloud details: Few Clouds 1341 m
2017/06/27 19:30 LESA 271930Z 29015KT 250V320 9999 FEW044 19/10 Q1013
 
LEXJ - Santander/Paraya, Spain
Distance from station: NNO 247km
Actualización: 28/06/2017 02:00
Lluvia débil, Few clouds
Lluvia débil, Few clouds
 Viento del SSO
Viento: SSO 6 km/h
Temperatura: 17°C
Rocío: 16°C
Humedad: 94%
Barómetro: 1009 hPa
Resumen: Lluvia débil
Clouds: Few Clouds
Visibility: 7 km
Cloud details: Few Clouds 884 m
2017/06/28 00:00 LEXJ 280000Z AUTO 21003KT 190V250 7000 -RA FEW029/// 17/16 Q1009
LEAS - Asturias/Aviles, Spain
Distance from station: NO 214km
Actualización: 28/06/2017 02:00
Few Clouds
Few Clouds
 Viento del OSO
Viento: OSO 7 km/h
Temperatura: 16°C
Rocío: 14°C
Humedad: 88%
Barómetro: 1008 hPa
Clouds: Few Clouds
Visibility: 10 km
Cloud details: Few Clouds 914 m
2017/06/28 00:00 LEAS 280000Z 24004KT 9999 FEW030 16/14 Q1008 NOSIG
 
LECO - La Coruna/Alvedr, Spain
Distance from station: ONO 222km
Actualización: 28/06/2017 02:00
Lluvia, Muy nuboso
Lluvia, Muy nuboso
 Viento del SSO
Viento: SSO 24 km/h
Temperatura: 17°C
Rocío: 15°C
Humedad: 88%
Barómetro: 1008 hPa
Resumen: Lluvia
Clouds: Muy nuboso
Visibility: 6 km
Cloud details: Muy nuboso 1280 m
Muy nuboso 1494 m
2017/06/28 00:00 LECO 280000Z AUTO 21013KT 6000 RA BKN042 BKN049 17/15 Q1008
LEVX - Vigo/Peinador, Spain
Distance from station: O 214km
Actualización: 28/06/2017 02:00
Muy nuboso
Muy nuboso
 Viento del SSO
Viento: SSO 19 km/h
Temperatura: 17°C
Rocío: 16°C
Humedad: 94%
Barómetro: 1012 hPa
Clouds: Muy nuboso
Visibility: 9 km
Cloud details: Muy nuboso 335 m
Muy nuboso 762 m
2017/06/28 00:00 LEVX 280000Z 20010KT 150V240 9000 BKN011 BKN025 17/16 Q1012 TEMPO 3000 SHRA SCT030TCU